Terminal Aerodrome Forecast
Issued by NWS

Home | Current Version | Previous Version | Text Only | Print | Product List | Glossary On
Versions: 1 2 3 4 5 6 7 8 9 10 11 12
348
FTUS43 KAPX 241120
TAFAPN
TAF
KAPN 241120Z 2412/2512 00000KT P6SM BKN140
     FM241700 17005KT P6SM VCSH BKN070
     FM242100 14005KT 4SM -SHRA BKN050
     FM250000 17004KT P6SM VCSH OVC035
     FM250300 32006KT P6SM BKN050
     FM250900 33010KT P6SM OVC012=

USA.gov is the U.S. government's official web portal to all federal, state and local government web resources and services.